sensor_id;sensor_type;location;lat;lon;timestamp;pressure;altitude;pressure_sealevel;temperature;humidity
63399;BME280;49533;-34.520;150.798;2023-01-31T00:01:18;99586.59;;;22.47;65.50
63399;BME280;49533;-34.520;150.798;2023-01-31T00:03:46;99581.44;;;22.49;65.51
63399;BME280;49533;-34.520;150.798;2023-01-31T00:06:17;99581.41;;;22.52;65.24
63399;BME280;49533;-34.520;150.798;2023-01-31T00:08:46;99589.72;;;22.52;65.09
63399;BME280;49533;-34.520;150.798;2023-01-31T00:11:15;99578.66;;;22.52;65.42
63399;BME280;49533;-34.520;150.798;2023-01-31T00:13:43;99580.25;;;22.50;65.27
63399;BME280;49533;-34.520;150.798;2023-01-31T00:16:12;99580.25;;;22.50;65.57
63399;BME280;49533;-34.520;150.798;2023-01-31T00:18:40;99566.81;;;22.48;65.49
63399;BME280;49533;-34.520;150.798;2023-01-31T00:21:10;99561.22;;;22.52;65.44
63399;BME280;49533;-34.520;150.798;2023-01-31T00:23:38;99556.50;;;22.52;65.33
63399;BME280;49533;-34.520;150.798;2023-01-31T00:26:12;99568.69;;;22.58;65.39
63399;BME280;49533;-34.520;150.798;2023-01-31T00:28:41;99554.06;;;22.58;65.02
63399;BME280;49533;-34.520;150.798;2023-01-31T00:31:09;99559.56;;;22.62;65.11
63399;BME280;49533;-34.520;150.798;2023-01-31T00:33:38;99552.03;;;22.62;64.59
63399;BME280;49533;-34.520;150.798;2023-01-31T00:36:07;99542.50;;;22.67;65.05
63399;BME280;49533;-34.520;150.798;2023-01-31T00:38:35;99542.47;;;22.70;65.36
63399;BME280;49533;-34.520;150.798;2023-01-31T00:41:03;99546.00;;;22.71;65.54
63399;BME280;49533;-34.520;150.798;2023-01-31T00:43:31;99546.78;;;22.71;65.63
63399;BME280;49533;-34.520;150.798;2023-01-31T00:45:58;99543.66;;;22.69;65.50
63399;BME280;49533;-34.520;150.798;2023-01-31T00:48:27;99544.44;;;22.70;65.65
63399;BME280;49533;-34.520;150.798;2023-01-31T00:50:54;99534.94;;;22.71;65.49
63399;BME280;49533;-34.520;150.798;2023-01-31T00:53:22;99536.50;;;22.72;65.58
63399;BME280;49533;-34.520;150.798;2023-01-31T00:55:50;99532.91;;;22.75;65.76
63399;BME280;49533;-34.520;150.798;2023-01-31T00:58:18;99532.44;;;22.80;65.84
63399;BME280;49533;-34.520;150.798;2023-01-31T01:00:46;99533.59;;;22.83;65.76
63399;BME280;49533;-34.520;150.798;2023-01-31T01:03:14;99526.44;;;22.85;66.01
63399;BME280;49533;-34.520;150.798;2023-01-31T01:05:41;99526.81;;;22.87;65.95
63399;BME280;49533;-34.520;150.798;2023-01-31T01:08:08;99517.66;;;22.90;65.91
63399;BME280;49533;-34.520;150.798;2023-01-31T01:10:35;99522.81;;;22.92;65.93
63399;BME280;49533;-34.520;150.798;2023-01-31T01:13:03;99516.50;;;22.91;66.05
63399;BME280;49533;-34.520;150.798;2023-01-31T01:15:31;99528.72;;;22.94;65.88
63399;BME280;49533;-34.520;150.798;2023-01-31T01:17:58;99518.78;;;22.96;65.98
63399;BME280;49533;-34.520;150.798;2023-01-31T01:20:26;99512.44;;;22.99;66.07
63399;BME280;49533;-34.520;150.798;2023-01-31T01:22:53;99516.78;;;23.00;65.72
63399;BME280;49533;-34.520;150.798;2023-01-31T01:25:20;99510.84;;;23.02;65.80
63399;BME280;49533;-34.520;150.798;2023-01-31T01:27:47;99519.09;;;23.06;65.62
63399;BME280;49533;-34.520;150.798;2023-01-31T01:30:14;99516.31;;;23.06;65.68
63399;BME280;49533;-34.520;150.798;2023-01-31T01:32:42;99511.53;;;23.10;65.71
63399;BME280;49533;-34.520;150.798;2023-01-31T01:35:09;99507.13;;;23.12;65.46
63399;BME280;49533;-34.520;150.798;2023-01-31T01:37:36;99492.06;;;23.13;65.69
63399;BME280;49533;-34.520;150.798;2023-01-31T01:40:04;99498.75;;;23.16;65.50
63399;BME280;49533;-34.520;150.798;2023-01-31T01:42:34;99489.25;;;23.17;65.65
63399;BME280;49533;-34.520;150.798;2023-01-31T01:45:03;99483.66;;;23.20;65.54
63399;BME280;49533;-34.520;150.798;2023-01-31T01:47:49;99478.09;;;23.24;65.58
63399;BME280;49533;-34.520;150.798;2023-01-31T01:50:28;99474.47;;;23.27;65.35
63399;BME280;49533;-34.520;150.798;2023-01-31T01:53:07;99470.06;;;23.30;65.39
63399;BME280;49533;-34.520;150.798;2023-01-31T01:55:41;99468.44;;;23.32;65.52
63399;BME280;49533;-34.520;150.798;2023-01-31T01:58:20;99464.47;;;23.33;65.32
63399;BME280;49533;-34.520;150.798;2023-01-31T02:00:49;99459.69;;;23.34;65.43
63399;BME280;49533;-34.520;150.798;2023-01-31T02:03:17;99456.16;;;23.33;65.36
63399;BME280;49533;-34.520;150.798;2023-01-31T02:05:48;99455.31;;;23.36;65.33
63399;BME280;49533;-34.520;150.798;2023-01-31T02:08:20;99448.19;;;23.35;65.42
63399;BME280;49533;-34.520;150.798;2023-01-31T02:11:05;99458.06;;;23.36;64.88
63399;BME280;49533;-34.520;150.798;2023-01-31T02:13:34;99445.06;;;23.33;65.32
63399;BME280;49533;-34.520;150.798;2023-01-31T02:16:03;99450.97;;;23.35;65.29
63399;BME280;49533;-34.520;150.798;2023-01-31T02:18:30;99440.25;;;23.37;65.18
63399;BME280;49533;-34.520;150.798;2023-01-31T02:32:47;99430.31;;;23.40;65.11
63399;BME280;49533;-34.520;150.798;2023-01-31T02:35:33;99418.78;;;23.41;64.85
63399;BME280;49533;-34.520;150.798;2023-01-31T02:38:25;99413.69;;;23.40;64.91
63399;BME280;49533;-34.520;150.798;2023-01-31T02:41:03;99406.09;;;23.44;64.90
63399;BME280;49533;-34.520;150.798;2023-01-31T02:43:51;99410.84;;;23.43;64.44
63399;BME280;49533;-34.520;150.798;2023-01-31T02:46:46;99409.66;;;23.44;64.91
63399;BME280;49533;-34.520;150.798;2023-01-31T02:49:22;99413.22;;;23.45;64.63
63399;BME280;49533;-34.520;150.798;2023-01-31T02:52:06;99405.66;;;23.46;64.76
63399;BME280;49533;-34.520;150.798;2023-01-31T02:54:51;99396.13;;;23.47;64.54
63399;BME280;49533;-34.520;150.798;2023-01-31T02:57:33;99393.72;;;23.49;64.61
63399;BME280;49533;-34.520;150.798;2023-01-31T03:00:01;99400.84;;;23.50;64.57
63399;BME280;49533;-34.520;150.798;2023-01-31T03:02:29;99402.41;;;23.51;64.47
63399;BME280;49533;-34.520;150.798;2023-01-31T03:04:56;99387.34;;;23.52;64.65
63399;BME280;49533;-34.520;150.798;2023-01-31T03:07:27;99384.56;;;23.52;64.55
63399;BME280;49533;-34.520;150.798;2023-01-31T03:10:32;99375.06;;;23.53;64.46
63399;BME280;49533;-34.520;150.798;2023-01-31T03:13:26;99369.06;;;23.54;64.36
63399;BME280;49533;-34.520;150.798;2023-01-31T03:16:12;99370.94;;;23.61;63.96
63399;BME280;49533;-34.520;150.798;2023-01-31T03:19:04;99371.38;;;23.59;64.15
63399;BME280;49533;-34.520;150.798;2023-01-31T03:21:43;99377.72;;;23.60;64.15
63399;BME280;49533;-34.520;150.798;2023-01-31T03:24:13;99372.50;;;23.62;64.24
63399;BME280;49533;-34.520;150.798;2023-01-31T03:26:42;99378.03;;;23.62;64.46
63399;BME280;49533;-34.520;150.798;2023-01-31T03:29:13;99372.50;;;23.62;64.37
63399;BME280;49533;-34.520;150.798;2023-01-31T03:31:49;99365.00;;;23.62;64.30
63399;BME280;49533;-34.520;150.798;2023-01-31T03:34:19;99360.22;;;23.63;64.19
63399;BME280;49533;-34.520;150.798;2023-01-31T03:36:56;99355.03;;;23.65;64.14
63399;BME280;49533;-34.520;150.798;2023-01-31T03:39:43;99359.38;;;23.66;64.05
63399;BME280;49533;-34.520;150.798;2023-01-31T03:42:22;99358.16;;;23.67;64.04
63399;BME280;49533;-34.520;150.798;2023-01-31T03:45:01;99356.19;;;23.68;64.29
63399;BME280;49533;-34.520;150.798;2023-01-31T03:47:38;99350.19;;;23.69;64.34
63399;BME280;49533;-34.520;150.798;2023-01-31T03:50:16;99336.69;;;23.71;64.25
63399;BME280;49533;-34.520;150.798;2023-01-31T03:52:56;99341.06;;;23.72;64.04
63399;BME280;49533;-34.520;150.798;2023-01-31T03:55:30;99334.31;;;23.73;63.88
63399;BME280;49533;-34.520;150.798;2023-01-31T03:58:01;99340.22;;;23.75;64.19
63399;BME280;49533;-34.520;150.798;2023-01-31T04:00:34;99333.53;;;23.73;64.17
63399;BME280;49533;-34.520;150.798;2023-01-31T04:03:12;99336.22;;;23.76;63.92
63399;BME280;49533;-34.520;150.798;2023-01-31T04:05:41;99327.91;;;23.76;63.99
63399;BME280;49533;-34.520;150.798;2023-01-31T04:08:09;99333.38;;;23.80;64.11
63399;BME280;49533;-34.520;150.798;2023-01-31T04:10:37;99324.28;;;23.79;64.12
63399;BME280;49533;-34.520;150.798;2023-01-31T04:13:04;99331.41;;;23.80;64.27
63399;BME280;49533;-34.520;150.798;2023-01-31T04:15:31;99330.19;;;23.81;64.18
63399;BME280;49533;-34.520;150.798;2023-01-31T04:17:58;99338.50;;;23.81;64.24
63399;BME280;49533;-34.520;150.798;2023-01-31T04:20:25;99328.19;;;23.82;64.12
63399;BME280;49533;-34.520;150.798;2023-01-31T04:22:52;99330.19;;;23.81;63.93
63399;BME280;49533;-34.520;150.798;2023-01-31T04:25:19;99332.97;;;23.81;63.57
63399;BME280;49533;-34.520;150.798;2023-01-31T04:27:46;99333.75;;;23.82;63.96
63399;BME280;49533;-34.520;150.798;2023-01-31T04:30:14;99341.66;;;23.83;63.77
63399;BME280;49533;-34.520;150.798;2023-01-31T04:32:41;99345.59;;;23.82;63.90
63399;BME280;49533;-34.520;150.798;2023-01-31T04:35:08;99342.84;;;23.82;64.03
63399;BME280;49533;-34.520;150.798;2023-01-31T04:37:35;99332.97;;;23.81;63.92
63399;BME280;49533;-34.520;150.798;2023-01-31T04:40:03;99335.31;;;23.83;63.77
63399;BME280;49533;-34.520;150.798;2023-01-31T04:42:31;99327.41;;;23.81;63.60
63399;BME280;49533;-34.520;150.798;2023-01-31T04:44:58;99337.38;;;23.79;63.83
63399;BME280;49533;-34.520;150.798;2023-01-31T04:47:25;99344.84;;;23.82;63.63
63399;BME280;49533;-34.520;150.798;2023-01-31T04:49:52;99348.06;;;23.80;63.41
63399;BME280;49533;-34.520;150.798;2023-01-31T04:52:19;99351.16;;;23.82;63.41
63399;BME280;49533;-34.520;150.798;2023-01-31T04:54:46;99357.16;;;23.81;63.21
63399;BME280;49533;-34.520;150.798;2023-01-31T04:57:13;99356.38;;;23.80;63.29
63399;BME280;49533;-34.520;150.798;2023-01-31T04:59:40;99351.59;;;23.81;63.32
63399;BME280;49533;-34.520;150.798;2023-01-31T05:02:07;99352.38;;;23.81;62.46
63399;BME280;49533;-34.520;150.798;2023-01-31T05:04:35;99359.91;;;23.81;63.16
63399;BME280;49533;-34.520;150.798;2023-01-31T05:07:02;99360.34;;;23.79;63.49
63399;BME280;49533;-34.520;150.798;2023-01-31T05:09:29;99353.22;;;23.78;63.33
63399;BME280;49533;-34.520;150.798;2023-01-31T05:11:56;99355.56;;;23.80;63.58
63399;BME280;49533;-34.520;150.798;2023-01-31T05:14:23;99356.38;;;23.80;63.33
63399;BME280;49533;-34.520;150.798;2023-01-31T05:16:50;99349.53;;;23.85;63.02
63399;BME280;49533;-34.520;150.798;2023-01-31T05:19:17;99343.19;;;23.84;63.16
63399;BME280;49533;-34.520;150.798;2023-01-31T05:21:44;99343.19;;;23.84;63.60
63399;BME280;49533;-34.520;150.798;2023-01-31T05:24:21;99349.53;;;23.85;63.12
63399;BME280;49533;-34.520;150.798;2023-01-31T05:26:48;99343.91;;;23.89;63.37
63399;BME280;49533;-34.520;150.798;2023-01-31T05:29:18;99344.34;;;23.87;63.22
63399;BME280;49533;-34.520;150.798;2023-01-31T05:31:45;99338.78;;;23.87;63.31
63399;BME280;49533;-34.520;150.798;2023-01-31T05:34:13;99324.16;;;23.86;63.62
63399;BME280;49533;-34.520;150.798;2023-01-31T05:36:42;99340.78;;;23.86;63.49
63399;BME280;49533;-34.520;150.798;2023-01-31T05:39:09;99341.56;;;23.87;63.46
63399;BME280;49533;-34.520;150.798;2023-01-31T05:41:36;99343.91;;;23.89;63.44
63399;BME280;49533;-34.520;150.798;2023-01-31T05:44:03;99339.16;;;23.89;63.54
63399;BME280;49533;-34.520;150.798;2023-01-31T05:46:31;99339.16;;;23.89;63.40
63399;BME280;49533;-34.520;150.798;2023-01-31T05:48:58;99344.69;;;23.89;63.32
63399;BME280;49533;-34.520;150.798;2023-01-31T05:51:25;99338.38;;;23.89;63.70
63399;BME280;49533;-34.520;150.798;2023-01-31T05:53:52;99335.59;;;23.89;63.52
63399;BME280;49533;-34.520;150.798;2023-01-31T05:56:21;99329.28;;;23.88;63.40
63399;BME280;49533;-34.520;150.798;2023-01-31T05:58:48;99330.06;;;23.89;63.50
63399;BME280;49533;-34.520;150.798;2023-01-31T06:01:18;99326.50;;;23.88;63.71
63399;BME280;49533;-34.520;150.798;2023-01-31T06:03:45;99323.28;;;23.90;63.55
63399;BME280;49533;-34.520;150.798;2023-01-31T06:06:13;99324.50;;;23.89;63.36
63399;BME280;49533;-34.520;150.798;2023-01-31T06:08:40;99323.28;;;23.90;63.63
63399;BME280;49533;-34.520;150.798;2023-01-31T06:11:09;99323.28;;;23.90;63.65
63399;BME280;49533;-34.520;150.798;2023-01-31T06:13:38;99312.97;;;23.90;63.30
63399;BME280;49533;-34.520;150.798;2023-01-31T06:16:05;99315.69;;;23.94;62.15
63399;BME280;49533;-34.520;150.798;2023-01-31T06:18:33;99313.41;;;24.08;61.13
63399;BME280;49533;-34.520;150.798;2023-01-31T06:21:00;99307.13;;;24.04;62.13
63399;BME280;49533;-34.520;150.798;2023-01-31T06:23:27;99320.16;;;24.07;62.23
63399;BME280;49533;-34.520;150.798;2023-01-31T06:25:55;99315.72;;;24.10;62.01
63399;BME280;49533;-34.520;150.798;2023-01-31T06:28:22;99319.22;;;24.14;62.10
63399;BME280;49533;-34.520;150.798;2023-01-31T06:30:49;99313.19;;;24.19;61.93
63399;BME280;49533;-34.520;150.798;2023-01-31T06:33:16;99314.22;;;24.25;62.09
63399;BME280;49533;-34.520;150.798;2023-01-31T06:35:44;99320.13;;;24.27;61.72
63399;BME280;49533;-34.520;150.798;2023-01-31T06:38:12;99316.94;;;24.29;61.83
63399;BME280;49533;-34.520;150.798;2023-01-31T06:40:41;99309.38;;;24.29;61.95
63399;BME280;49533;-34.520;150.798;2023-01-31T06:43:08;99316.06;;;24.32;61.61
63399;BME280;49533;-34.520;150.798;2023-01-31T06:45:35;99318.84;;;24.32;62.03
63399;BME280;49533;-34.520;150.798;2023-01-31T06:48:03;99308.88;;;24.35;61.79
63399;BME280;49533;-34.520;150.798;2023-01-31T06:50:30;99303.31;;;24.35;61.66
63399;BME280;49533;-34.520;150.798;2023-01-31T06:52:57;99306.47;;;24.37;61.46
63399;BME280;49533;-34.520;150.798;2023-01-31T06:55:24;99304.09;;;24.35;61.45
63399;BME280;49533;-34.520;150.798;2023-01-31T06:57:52;99312.00;;;24.37;61.30
63399;BME280;49533;-34.520;150.798;2023-01-31T07:00:21;99306.09;;;24.35;61.23
63399;BME280;49533;-34.520;150.798;2023-01-31T07:02:52;99304.88;;;24.36;60.89
63399;BME280;49533;-34.520;150.798;2023-01-31T07:05:19;99310.78;;;24.38;61.38
63399;BME280;49533;-34.520;150.798;2023-01-31T07:07:47;99304.88;;;24.36;61.31
63399;BME280;49533;-34.520;150.798;2023-01-31T07:10:16;99322.31;;;24.36;60.97
63399;BME280;49533;-34.520;150.798;2023-01-31T07:12:43;99307.22;;;24.37;61.08
63399;BME280;49533;-34.520;150.798;2023-01-31T07:15:11;99313.91;;;24.40;60.60
63399;BME280;49533;-34.520;150.798;2023-01-31T07:17:38;99307.16;;;24.41;60.87
63399;BME280;49533;-34.520;150.798;2023-01-31T07:20:05;99314.28;;;24.42;61.03
63399;BME280;49533;-34.520;150.798;2023-01-31T07:22:33;99305.16;;;24.41;61.03
63399;BME280;49533;-34.520;150.798;2023-01-31T07:25:00;99314.28;;;24.42;60.70
63399;BME280;49533;-34.520;150.798;2023-01-31T07:27:27;99310.28;;;24.43;60.74
63399;BME280;49533;-34.520;150.798;2023-01-31T07:29:54;99316.59;;;24.43;61.12
63399;BME280;49533;-34.520;150.798;2023-01-31T07:32:21;99305.50;;;24.43;61.11
63399;BME280;49533;-34.520;150.798;2023-01-31T07:34:48;99310.66;;;24.45;60.67
63399;BME280;49533;-34.520;150.798;2023-01-31T07:37:16;99311.06;;;24.43;60.90
63399;BME280;49533;-34.520;150.798;2023-01-31T07:39:43;99317.00;;;24.45;61.00
63399;BME280;49533;-34.520;150.798;2023-01-31T07:42:11;99325.72;;;24.44;60.87
63399;BME280;49533;-34.520;150.798;2023-01-31T07:44:38;99321.78;;;24.45;61.25
63399;BME280;49533;-34.520;150.798;2023-01-31T07:47:05;99319.00;;;24.45;60.86
63399;BME280;49533;-34.520;150.798;2023-01-31T07:49:32;99320.97;;;24.44;60.92
63399;BME280;49533;-34.520;150.798;2023-01-31T07:52:00;99328.47;;;24.44;60.71
63399;BME280;49533;-34.520;150.798;2023-01-31T07:54:28;99325.38;;;24.42;60.82
63399;BME280;49533;-34.520;150.798;2023-01-31T07:56:55;99336.47;;;24.42;60.83
63399;BME280;49533;-34.520;150.798;2023-01-31T07:59:22;99342.81;;;24.42;60.96
63399;BME280;49533;-34.520;150.798;2023-01-31T08:01:49;99339.69;;;24.40;60.81
63399;BME280;49533;-34.520;150.798;2023-01-31T08:04:28;99340.47;;;24.41;60.87
63399;BME280;49533;-34.520;150.798;2023-01-31T08:06:55;99350.00;;;24.40;61.06
63399;BME280;49533;-34.520;150.798;2023-01-31T08:09:24;99355.19;;;24.38;60.99
63399;BME280;49533;-34.520;150.798;2023-01-31T08:11:51;99353.28;;;24.35;60.50
63399;BME280;49533;-34.520;150.798;2023-01-31T08:14:20;99365.59;;;24.34;61.04
63399;BME280;49533;-34.520;150.798;2023-01-31T08:16:51;99359.72;;;24.32;60.97
63399;BME280;49533;-34.520;150.798;2023-01-31T08:19:18;99370.44;;;24.29;60.46
63399;BME280;49533;-34.520;150.798;2023-01-31T08:21:45;99374.00;;;24.30;60.67
63399;BME280;49533;-34.520;150.798;2023-01-31T08:24:12;99371.22;;;24.30;60.94
63399;BME280;49533;-34.520;150.798;2023-01-31T08:26:41;99361.34;;;24.29;60.28
63399;BME280;49533;-34.520;150.798;2023-01-31T08:29:09;99365.31;;;24.28;60.13
63399;BME280;49533;-34.520;150.798;2023-01-31T08:31:36;99368.88;;;24.28;60.35
63399;BME280;49533;-34.520;150.798;2023-01-31T08:34:03;99380.41;;;24.27;60.12
63399;BME280;49533;-34.520;150.798;2023-01-31T08:36:32;99371.72;;;24.25;60.57
63399;BME280;49533;-34.520;150.798;2023-01-31T08:39:01;99378.06;;;24.25;60.76
63399;BME280;49533;-34.520;150.798;2023-01-31T08:41:31;99378.91;;;24.22;60.47
63399;BME280;49533;-34.520;150.798;2023-01-31T08:43:59;99378.13;;;24.22;60.80
63399;BME280;49533;-34.520;150.798;2023-01-31T08:46:29;99381.34;;;24.20;60.30
63399;BME280;49533;-34.520;150.798;2023-01-31T08:48:57;99379.00;;;24.19;60.33
63399;BME280;49533;-34.520;150.798;2023-01-31T08:51:24;99387.75;;;24.17;60.37
63399;BME280;49533;-34.520;150.798;2023-01-31T08:53:52;99386.97;;;24.17;60.31
63399;BME280;49533;-34.520;150.798;2023-01-31T08:56:19;99388.59;;;24.14;60.28
63399;BME280;49533;-34.520;150.798;2023-01-31T08:58:51;99388.16;;;24.16;60.03
63399;BME280;49533;-34.520;150.798;2023-01-31T09:01:19;99391.38;;;24.14;59.39
63399;BME280;49533;-34.520;150.798;2023-01-31T09:03:47;99396.94;;;24.14;59.21
63399;BME280;49533;-34.520;150.798;2023-01-31T09:06:19;99396.56;;;24.12;59.46
63399;BME280;49533;-34.520;150.798;2023-01-31T09:08:47;99404.13;;;24.12;59.21
63399;BME280;49533;-34.520;150.798;2023-01-31T09:11:15;99399.34;;;24.12;59.75
63399;BME280;49533;-34.520;150.798;2023-01-31T09:13:45;99400.19;;;24.09;59.09
63399;BME280;49533;-34.520;150.798;2023-01-31T09:16:13;99404.97;;;24.08;59.20
63399;BME280;49533;-34.520;150.798;2023-01-31T09:18:41;99400.63;;;24.07;59.41
63399;BME280;49533;-34.520;150.798;2023-01-31T09:21:12;99410.56;;;24.05;59.40
63399;BME280;49533;-34.520;150.798;2023-01-31T09:23:40;99408.56;;;24.05;59.36
63399;BME280;49533;-34.520;150.798;2023-01-31T09:26:07;99413.34;;;24.05;59.04
63399;BME280;49533;-34.520;150.798;2023-01-31T09:28:34;99405.47;;;24.03;59.48
63399;BME280;49533;-34.520;150.798;2023-01-31T09:31:06;99415.75;;;24.03;59.50
63399;BME280;49533;-34.520;150.798;2023-01-31T09:33:33;99422.53;;;24.02;59.29
63399;BME280;49533;-34.520;150.798;2023-01-31T09:36:04;99432.06;;;24.01;59.17
63399;BME280;49533;-34.520;150.798;2023-01-31T09:38:32;99431.25;;;24.00;59.17
63399;BME280;49533;-34.520;150.798;2023-01-31T09:41:03;99435.66;;;23.98;59.36
63399;BME280;49533;-34.520;150.798;2023-01-31T09:43:39;99431.41;;;23.93;59.51
63399;BME280;49533;-34.520;150.798;2023-01-31T09:46:13;99442.50;;;23.93;59.17
63399;BME280;49533;-34.520;150.798;2023-01-31T09:48:44;99439.75;;;23.93;59.20
63399;BME280;49533;-34.520;150.798;2023-01-31T09:51:14;99448.06;;;23.93;59.41
63399;BME280;49533;-34.520;150.798;2023-01-31T09:53:42;99442.94;;;23.92;59.38
63399;BME280;49533;-34.520;150.798;2023-01-31T09:56:28;99445.69;;;23.92;59.52
63399;BME280;49533;-34.520;150.798;2023-01-31T09:59:08;99448.56;;;23.88;59.62
63399;BME280;49533;-34.520;150.798;2023-01-31T10:01:54;99450.53;;;23.87;59.74
63399;BME280;49533;-34.520;150.798;2023-01-31T10:04:50;99448.19;;;23.86;59.65
63399;BME280;49533;-34.520;150.798;2023-01-31T10:07:29;99452.59;;;23.83;59.59
63399;BME280;49533;-34.520;150.798;2023-01-31T10:10:36;99456.56;;;23.82;59.80
63399;BME280;49533;-34.520;150.798;2023-01-31T10:12:56;99455.00;;;23.81;59.97
63399;BME280;49533;-34.520;150.798;2023-01-31T10:15:39;99461.75;;;23.80;59.96
63399;BME280;49533;-34.520;150.798;2023-01-31T10:18:15;99468.94;;;23.78;59.72
63399;BME280;49533;-34.520;150.798;2023-01-31T10:20:50;99478.81;;;23.79;60.05
63399;BME280;49533;-34.520;150.798;2023-01-31T10:23:32;99475.25;;;23.78;60.13
63399;BME280;49533;-34.520;150.798;2023-01-31T10:26:05;99480.44;;;23.76;59.99
63399;BME280;49533;-34.520;150.798;2023-01-31T10:28:49;99484.00;;;23.77;60.18
63399;BME280;49533;-34.520;150.798;2023-01-31T10:31:33;99475.75;;;23.73;59.91
63399;BME280;49533;-34.520;150.798;2023-01-31T10:34:10;99483.28;;;23.73;60.06
63399;BME280;49533;-34.520;150.798;2023-01-31T10:36:45;99480.53;;;23.69;60.41
63399;BME280;49533;-34.520;150.798;2023-01-31T10:39:22;99490.00;;;23.72;60.11
63399;BME280;49533;-34.520;150.798;2023-01-31T10:42:19;99486.06;;;23.69;60.25
63399;BME280;49533;-34.520;150.798;2023-01-31T10:44:55;99487.28;;;23.68;60.28
63399;BME280;49533;-34.520;150.798;2023-01-31T10:47:31;99483.38;;;23.65;60.30
63399;BME280;49533;-34.520;150.798;2023-01-31T10:50:00;99485.41;;;23.61;60.61
63399;BME280;49533;-34.520;150.798;2023-01-31T10:52:46;99496.47;;;23.65;60.41
63399;BME280;49533;-34.520;150.798;2023-01-31T10:55:35;99493.31;;;23.63;60.56
63399;BME280;49533;-34.520;150.798;2023-01-31T10:58:13;99494.94;;;23.60;60.17
63399;BME280;49533;-34.520;150.798;2023-01-31T11:00:42;99491.03;;;23.58;60.54
63399;BME280;49533;-34.520;150.798;2023-01-31T11:03:12;99484.69;;;23.57;60.36
63399;BME280;49533;-34.520;150.798;2023-01-31T11:05:51;99484.31;;;23.55;60.24
63399;BME280;49533;-34.520;150.798;2023-01-31T11:08:31;99479.97;;;23.54;60.48
63399;BME280;49533;-34.520;150.798;2023-01-31T11:11:14;99488.72;;;23.53;60.60
63399;BME280;49533;-34.520;150.798;2023-01-31T11:13:59;99493.06;;;23.54;60.37
63399;BME280;49533;-34.520;150.798;2023-01-31T11:16:30;99477.25;;;23.51;60.41
63399;BME280;49533;-34.520;150.798;2023-01-31T11:19:03;99482.06;;;23.47;60.59
63399;BME280;49533;-34.520;150.798;2023-01-31T11:21:39;99484.84;;;23.47;60.40
63399;BME280;49533;-34.520;150.798;2023-01-31T11:24:16;99478.53;;;23.46;60.52
63399;BME280;49533;-34.520;150.798;2023-01-31T11:26:56;99477.75;;;23.46;60.60
63399;BME280;49533;-34.520;150.798;2023-01-31T11:29:32;99473.41;;;23.44;60.46
63399;BME280;49533;-34.520;150.798;2023-01-31T11:32:04;99471.06;;;23.43;60.66
63399;BME280;49533;-34.520;150.798;2023-01-31T11:34:32;99468.34;;;23.39;60.46
63399;BME280;49533;-34.520;150.798;2023-01-31T11:37:12;99472.75;;;23.37;60.51
63399;BME280;49533;-34.520;150.798;2023-01-31T11:39:39;99460.06;;;23.36;60.52
63399;BME280;49533;-34.520;150.798;2023-01-31T11:42:13;99454.16;;;23.34;60.62
63399;BME280;49533;-34.520;150.798;2023-01-31T11:44:53;99446.66;;;23.34;60.64
63399;BME280;49533;-34.520;150.798;2023-01-31T11:47:31;99450.59;;;23.33;60.81
63399;BME280;49533;-34.520;150.798;2023-01-31T11:50:00;99448.69;;;23.30;60.54
63399;BME280;49533;-34.520;150.798;2023-01-31T11:52:30;99443.13;;;23.30;60.70
63399;BME280;49533;-34.520;150.798;2023-01-31T11:55:04;99449.91;;;23.29;60.65
63399;BME280;49533;-34.520;150.798;2023-01-31T11:57:35;99451.16;;;23.25;60.68
63399;BME280;49533;-34.520;150.798;2023-01-31T12:00:15;99443.25;;;23.23;60.90
63399;BME280;49533;-34.520;150.798;2023-01-31T12:02:44;99446.44;;;23.21;61.11
63399;BME280;49533;-34.520;150.798;2023-01-31T12:05:14;99443.69;;;23.21;60.61
63399;BME280;49533;-34.520;150.798;2023-01-31T12:07:47;99449.63;;;23.20;61.12
63399;BME280;49533;-34.520;150.798;2023-01-31T12:10:32;99442.94;;;23.17;60.72
63399;BME280;49533;-34.520;150.798;2023-01-31T12:13:10;99444.94;;;23.17;60.57
63399;BME280;49533;-34.520;150.798;2023-01-31T12:16:00;99437.81;;;23.16;60.96
63399;BME280;49533;-34.520;150.798;2023-01-31T12:18:49;99430.72;;;23.15;61.03
63399;BME280;49533;-34.520;150.798;2023-01-31T12:21:40;99433.53;;;23.11;60.88
63399;BME280;49533;-34.520;150.798;2023-01-31T12:24:25;99438.28;;;23.11;60.55
63399;BME280;49533;-34.520;150.798;2023-01-31T12:27:11;99431.19;;;23.10;60.80
63399;BME280;49533;-34.520;150.798;2023-01-31T12:30:12;99438.28;;;23.11;60.83
63399;BME280;49533;-34.520;150.798;2023-01-31T12:32:53;99428.03;;;23.08;60.80
63399;BME280;49533;-34.520;150.798;2023-01-31T12:35:41;99426.84;;;23.09;60.93
63399;BME280;49533;-34.520;150.798;2023-01-31T12:38:25;99413.03;;;23.05;60.90
63399;BME280;49533;-34.520;150.798;2023-01-31T12:41:12;99415.44;;;23.03;60.91
63399;BME280;49533;-34.520;150.798;2023-01-31T12:50:02;99402.88;;;22.98;60.74
63399;BME280;49533;-34.520;150.798;2023-01-31T12:52:52;99404.88;;;22.94;60.96
63399;BME280;49533;-34.520;150.798;2023-01-31T12:55:35;99402.09;;;22.94;60.71
63399;BME280;49533;-34.520;150.798;2023-01-31T13:01:11;99391.84;;;22.91;60.76
63399;BME280;49533;-34.520;150.798;2023-01-31T13:06:36;99395.50;;;22.85;60.65
63399;BME280;49533;-34.520;150.798;2023-01-31T13:09:12;99389.97;;;22.85;60.50
63399;BME280;49533;-34.520;150.798;2023-01-31T13:11:54;99395.94;;;22.83;60.37
63399;BME280;49533;-34.520;150.798;2023-01-31T13:14:25;99389.59;;;22.83;60.54
63399;BME280;49533;-34.520;150.798;2023-01-31T13:16:55;99383.28;;;22.82;60.65
63399;BME280;49533;-34.520;150.798;2023-01-31T13:19:33;99380.13;;;22.80;60.66